createdAt,value
2022-11-26T00:04:48.237Z,96655.53
2022-11-26T00:09:50.321Z,96664.97
2022-11-26T00:14:51.923Z,96677.63
2022-11-26T00:19:53.343Z,96664.78
2022-11-26T00:24:55.292Z,96669.09
2022-11-26T00:29:56.758Z,96678.38
2022-11-26T00:34:58.146Z,96682.59
2022-11-26T00:39:59.656Z,96688.25
2022-11-26T00:45:01.165Z,96691.25
2022-11-26T00:50:02.609Z,96702.31
2022-11-26T00:55:10.280Z,96706.16
2022-11-26T01:00:17.188Z,96699.69
2022-11-26T01:05:20.390Z,96697.06
2022-11-26T01:10:24.788Z,96698.56
2022-11-26T01:15:27.680Z,96693.09
2022-11-26T01:20:31.067Z,96696.97
2022-11-26T01:25:32.475Z,96714.50
2022-11-26T01:30:33.950Z,96707.09
2022-11-26T01:35:35.974Z,96718.28
2022-11-26T01:40:53.343Z,96729.78
2022-11-26T01:45:56.513Z,96740.78
2022-11-26T01:51:06.824Z,96742.63
2022-11-26T01:56:17.512Z,96754.66
2022-11-26T02:01:19.332Z,96756.59
2022-11-26T02:06:25.588Z,96760.56
2022-11-26T02:11:27.101Z,96762.78
2022-11-26T02:16:28.716Z,96757.34
2022-11-26T02:21:34.305Z,96765.19
2022-11-26T02:26:58.607Z,96777.25
2022-11-26T02:32:10.264Z,96786.88
2022-11-26T02:37:38.712Z,96779.88
2022-11-26T02:42:40.211Z,96785.56
2022-11-26T02:47:45.895Z,96789.41
2022-11-26T02:52:49.804Z,96789.69
2022-11-26T02:57:52.543Z,96798.63
2022-11-26T03:02:59.984Z,96808.81
2022-11-26T03:08:03.707Z,96808.06
2022-11-26T03:13:05.272Z,96817.25
2022-11-26T03:18:06.767Z,96827.34
2022-11-26T03:23:08.189Z,96831.22
2022-11-26T03:28:09.597Z,96831.22
2022-11-26T03:33:11.076Z,96844.63
2022-11-26T03:38:12.695Z,96851.56
2022-11-26T03:43:14.100Z,96849.41
2022-11-26T03:48:15.594Z,96859.84
2022-11-26T03:53:17.070Z,96866.53
2022-11-26T03:58:18.495Z,96866.84
2022-11-26T04:03:20.144Z,96870.69
2022-11-26T04:08:21.616Z,96868.81
2022-11-26T04:13:23.100Z,96875.47
2022-11-26T04:18:24.619Z,96868.47
2022-11-26T04:23:26.065Z,96866.09
2022-11-26T04:28:27.450Z,96875.34
2022-11-26T04:33:28.862Z,96864.50
2022-11-26T04:38:30.286Z,96870.56
2022-11-26T04:43:31.782Z,96872.88
2022-11-26T04:48:33.222Z,96870.69
2022-11-26T04:53:34.688Z,96866.50
2022-11-26T04:58:36.169Z,96872.56
2022-11-26T05:03:37.640Z,96873.75
2022-11-26T05:08:39.052Z,96869.38
2022-11-26T05:13:40.507Z,96882.69
2022-11-26T05:18:42.025Z,96882.56
2022-11-26T05:23:43.507Z,96880.44
2022-11-26T05:28:44.959Z,96889.78
2022-11-26T05:33:46.353Z,96886.63
2022-11-26T05:38:47.787Z,96897.13
2022-11-26T05:43:49.250Z,96902.69
2022-11-26T05:48:50.729Z,96901.00
2022-11-26T05:53:52.155Z,96898.22
2022-11-26T05:58:53.635Z,96900.28
2022-11-26T06:03:55.112Z,96912.22
2022-11-26T06:08:56.733Z,96924.38
2022-11-26T06:13:58.181Z,96916.69
2022-11-26T06:18:59.622Z,96924.00
2022-11-26T06:24:01.060Z,96929.09
2022-11-26T06:29:02.549Z,96936.91
2022-11-26T06:34:04.053Z,96921.09
2022-11-26T06:39:05.600Z,96920.94
2022-11-26T06:44:07.188Z,96922.09
2022-11-26T06:49:09.768Z,96935.22
2022-11-26T06:54:11.164Z,96947.38
2022-11-26T06:59:12.837Z,96945.34
2022-11-26T07:04:15.010Z,96944.28
2022-11-26T07:09:16.474Z,96951.38
2022-11-26T07:14:17.904Z,96958.41
2022-11-26T07:19:19.301Z,96964.09
2022-11-26T07:24:20.750Z,96968.63
2022-11-26T07:29:22.166Z,96958.34
2022-11-26T07:34:23.655Z,96972.94
2022-11-26T07:39:25.095Z,96985.13
2022-11-26T07:44:26.514Z,97003.72
2022-11-26T07:49:28.071Z,97011.47
2022-11-26T07:54:29.555Z,97021.78
2022-11-26T07:59:31.005Z,97032.44
2022-11-26T08:04:32.445Z,97028.75
2022-11-26T08:09:34.156Z,97030.16
2022-11-26T08:14:35.675Z,97023.03
2022-11-26T08:19:37.255Z,97020.94
2022-11-26T08:24:38.843Z,97025.31
2022-11-26T08:29:40.469Z,97026.09
2022-11-26T08:34:42.040Z,97031.38
2022-11-26T08:39:43.516Z,97033.34
2022-11-26T08:44:44.900Z,97024.63
2022-11-26T08:49:46.364Z,97035.38
2022-11-26T08:54:48.080Z,97036.06
2022-11-26T08:59:49.717Z,97042.22
2022-11-26T09:04:51.933Z,97040.41
2022-11-26T09:09:53.379Z,97039.91
2022-11-26T09:14:54.941Z,97042.16
2022-11-26T09:19:56.468Z,97050.28
2022-11-26T09:24:57.947Z,97053.41
2022-11-26T09:29:59.432Z,97053.66
2022-11-26T09:35:00.850Z,97051.72
2022-11-26T09:40:02.461Z,97058.22
2022-11-26T09:45:30.099Z,97071.09
2022-11-26T09:50:33.512Z,97053.28
2022-11-26T09:55:40.904Z,97059.63
2022-11-26T10:28:56.940Z,97064.81
2022-11-26T10:34:02.444Z,97059.53
2022-11-26T10:39:03.950Z,97053.81
2022-11-26T10:49:43.866Z,97036.50
2022-11-26T10:54:45.319Z,97039.97
2022-11-26T10:59:52.050Z,97031.81
2022-11-26T11:04:56.480Z,97028.50
2022-11-26T11:10:10.022Z,97026.38
2022-11-26T11:15:20.544Z,97028.66
2022-11-26T11:20:52.776Z,97029.41
2022-11-26T11:26:07.421Z,97013.28
2022-11-26T11:31:17.605Z,97001.06
2022-11-26T11:36:26.620Z,96996.66
2022-11-26T11:41:32.147Z,96997.94
2022-11-26T11:46:52.526Z,96989.84
2022-11-26T11:52:15.466Z,96989.66
2022-11-26T11:57:28.344Z,96983.94
2022-11-26T12:02:57.529Z,96977.53
2022-11-26T12:08:20.978Z,96967.75
2022-11-26T12:13:23.519Z,96956.84
2022-11-26T12:18:29.006Z,96954.75
2022-11-26T12:23:47.812Z,96950.75
2022-11-26T12:28:58.069Z,96957.16
2022-11-26T12:34:11.019Z,96961.91
2022-11-26T12:39:20.058Z,96942.47
2022-11-26T12:44:36.599Z,96947.00
2022-11-26T12:49:57.686Z,96940.78
2022-11-26T12:55:09.291Z,96952.09
2022-11-26T13:00:22.419Z,96960.34
2022-11-26T13:05:45.312Z,96969.75
2022-11-26T13:11:18.631Z,96978.41
2022-11-26T13:16:45.093Z,96963.28
2022-11-26T13:22:11.917Z,96970.34
2022-11-26T13:27:38.736Z,96969.63
2022-11-26T13:33:01.650Z,96958.50
2022-11-26T13:38:30.834Z,96957.41
2022-11-26T13:43:56.745Z,96961.34
2022-11-26T13:49:06.196Z,96943.19
2022-11-26T13:54:17.138Z,96946.81
2022-11-26T13:59:28.394Z,96944.88
2022-11-26T14:04:33.111Z,96940.69
2022-11-26T14:09:43.600Z,96938.25
2022-11-26T14:14:49.134Z,96945.13
2022-11-26T14:19:50.488Z,96943.19
2022-11-26T14:24:51.878Z,96943.50
2022-11-26T14:30:03.230Z,96946.94
2022-11-26T14:35:37.093Z,96953.06
2022-11-26T14:40:38.718Z,96951.75
2022-11-26T14:45:40.644Z,96943.97
2022-11-26T14:50:43.044Z,96941.84
2022-11-26T14:55:45.170Z,96937.97
2022-11-26T15:01:21.188Z,96930.63
2022-11-26T15:06:34.491Z,96923.59
2022-11-26T15:11:40.536Z,96929.06
2022-11-26T15:16:42.181Z,96918.66
2022-11-26T15:21:43.704Z,96914.97
